| time (UTC) | temp C | wind direction | speed KPH | gust KPH | rain 1hr cm | rain 24hr cm | rain mn cm | humidity % | barometer mb |
| 20260506182409 | 20 | 356 | 3.2 | 6.4 | 0.00 | 0.00 | 0.00 | 63 | 1022.6 |
| 20260506181906 | 20 | 290 | 1.6 | 3.2 | 0.00 | 0.00 | 0.00 | 63 | 1022.6 |
| 20260506181404 | 20 | 309 | 1.6 | 4.8 | 0.00 | 0.00 | 0.00 | 64 | 1022.6 |
| 20260506180901 | 20 | 324 | 3.2 | 6.4 | 0.00 | 0.00 | 0.00 | 64 | 1022.6 |
| 20260506180357 | 20 | 338 | 3.2 | 8.0 | 0.00 | 0.00 | 0.00 | 65 | 1022.6 |
| 20260506175854 | 19 | 302 | 3.2 | 6.4 | 0.00 | 0.00 | 0.00 | 65 | 1022.6 |
| 20260506175350 | 19 | 278 | 0.0 | 4.8 | 0.00 | 0.00 | 0.00 | 66 | 1022.6 |
| 20260506174847 | 19 | 301 | 0.0 | 3.2 | 0.00 | 0.00 | 0.00 | 66 | 1022.6 |
| 20260506174345 | 19 | 301 | 1.6 | 4.8 | 0.00 | 0.00 | 0.00 | 66 | 1022.6 |
| 20260506173842 | 18 | 329 | 1.6 | 6.4 | 0.00 | 0.00 | 0.00 | 66 | 1022.6 |
| 20260506173339 | 18 | 320 | 1.6 | 4.8 | 0.00 | 0.00 | 0.00 | 66 | 1022.6 |
| 20260506172836 | 18 | 312 | 0.0 | 4.8 | 0.00 | 0.00 | 0.00 | 67 | 1022.6 |
| 20260506172332 | 18 | 333 | 3.2 | 6.4 | 0.00 | 0.00 | 0.00 | 67 | 1022.6 |
| 20260506171830 | 18 | 323 | 4.8 | 9.7 | 0.00 | 0.00 | 0.00 | 68 | 1022.6 |
| 20260506171327 | 18 | 311 | 3.2 | 6.4 | 0.00 | 0.00 | 0.00 | 68 | 1022.6 |
| 20260506170825 | 17 | 308 | 3.2 | 6.4 | 0.00 | 0.00 | 0.00 | 69 | 1022.6 |
| 20260506170320 | 17 | 343 | 3.2 | 6.4 | 0.00 | 0.00 | 0.00 | 70 | 1022.6 |
| 20260506165820 | 17 | 340 | 1.6 | 4.8 | 0.00 | 0.00 | 0.00 | 70 | 1022.6 |
| 20260506165317 | 17 | 331 | 3.2 | 8.0 | 0.00 | 0.00 | 0.00 | 70 | 1022.6 |
| 20260506164813 | 17 | 329 | 1.6 | 8.0 | 0.00 | 0.00 | 0.00 | 71 | 1022.9 |
| 20260506164310 | 16 | 325 | 4.8 | 8.0 | 0.00 | 0.00 | 0.00 | 71 | 1022.9 |
| 20260506163807 | 16 | 318 | 4.8 | 11.3 | 0.00 | 0.00 | 0.00 | 72 | 1022.9 |
| 20260506163302 | 16 | 336 | 0.0 | 1.6 | 0.00 | 0.00 | 0.00 | 73 | 1022.9 |
| 20260506162758 | 16 | 336 | 1.6 | 4.8 | 0.00 | 0.00 | 0.00 | 73 | 1022.9 |
| 20260506162256 | 16 | 312 | 4.8 | 6.4 | 0.00 | 0.00 | 0.00 | 75 | 1023.6 |
| 20260506161753 | 15 | 325 | 3.2 | 6.4 | 0.00 | 0.00 | 0.00 | 78 | 1023.6 |
| 20260506161250 | 15 | 346 | 1.6 | 3.2 | 0.00 | 0.00 | 0.00 | 79 | 1023.6 |
| 20260506153143 | 14 | 333 | 3.2 | 6.4 | 0.00 | 0.00 | 0.00 | 79 | 1023.6 |
| 20260506152640 | 14 | 333 | 3.2 | 6.4 | 0.00 | 0.00 | 0.00 | 79 | 1023.6 |
| 20260506152137 | 14 | 324 | 1.6 | 3.2 | 0.00 | 0.00 | 0.00 | 79 | 1023.6 |
| 20260506151636 | 14 | 325 | 3.2 | 8.0 | 0.00 | 0.00 | 0.00 | 80 | 1023.6 |
| 20260506151132 | 14 | 315 | 0.0 | 0.0 | 0.00 | 0.00 | 0.00 | 80 | 1023.6 |
| 20260506150629 | 14 | 315 | 1.6 | 4.8 | 0.00 | 0.00 | 0.00 | 80 | 1023.6 |
| 20260506150126 | 14 | 317 | 3.2 | 9.7 | 0.00 | 0.00 | 0.00 | 81 | 1023.6 |
| 20260506145623 | 14 | 327 | 1.6 | 4.8 | 0.00 | 0.00 | 0.00 | 81 | 1023.6 |
| 20260506145120 | 14 | 327 | 3.2 | 6.4 | 0.00 | 0.00 | 0.00 | 81 | 1023.6 |
| 20260506144617 | 14 | 327 | 1.6 | 4.8 | 0.00 | 0.00 | 0.00 | 81 | 1023.6 |
| 20260506144114 | 13 | 327 | 3.2 | 6.4 | 0.00 | 0.00 | 0.00 | 82 | 1023.6 |
| 20260506143612 | 13 | 327 | 0.0 | 3.2 | 0.00 | 0.00 | 0.00 | 82 | 1023.6 |
| 20260506143110 | 13 | 327 | 1.6 | 4.8 | 0.00 | 0.00 | 0.00 | 82 | 1023.6 |
| 20260506142608 | 13 | 327 | 1.6 | 4.8 | 0.00 | 0.00 | 0.00 | 83 | 1023.6 |
| 20260506142106 | 13 | 327 | 1.6 | 4.8 | 0.00 | 0.00 | 0.00 | 83 | 1023.6 |
| 20260506141602 | 13 | 327 | 3.2 | 4.8 | 0.00 | 0.00 | 0.00 | 84 | 1023.2 |
| 20260506141101 | 13 | 327 | 0.0 | 0.0 | 0.00 | 0.00 | 0.00 | 85 | 1023.2 |
| 20260506140558 | 13 | 327 | 1.6 | 4.8 | 0.00 | 0.00 | 0.00 | 85 | 1023.2 |
| 20260506140055 | 13 | 327 | 1.6 | 4.8 | 0.00 | 0.00 | 0.00 | 85 | 1023.2 |
| 20260506135552 | 13 | 327 | 1.6 | 6.4 | 0.00 | 0.00 | 0.00 | 86 | 1023.2 |
| 20260506135048 | 13 | 327 | 0.0 | 3.2 | 0.00 | 0.00 | 0.00 | 86 | 1022.9 |
| 20260506134545 | 13 | 327 | 0.0 | 3.2 | 0.00 | 0.00 | 0.00 | 86 | 1022.9 |
| 20260506134041 | 13 | 327 | 1.6 | 6.4 | 0.00 | 0.00 | 0.00 | 86 | 1022.9 |
| 20260506133538 | 13 | 327 | 3.2 | 4.8 | 0.00 | 0.00 | 0.00 | 86 | 1022.9 |
| 20260506133035 | 13 | 327 | 1.6 | 3.2 | 0.00 | 0.00 | 0.00 | 87 | 1022.9 |
| 20260506132532 | 13 | 327 | 1.6 | 4.8 | 0.00 | 0.00 | 0.00 | 87 | 1022.6 |
| 20260506132030 | 13 | 327 | 1.6 | 3.2 | 0.00 | 0.00 | 0.00 | 87 | 1022.6 |
| 20260506131527 | 13 | 327 | 0.0 | 0.0 | 0.00 | 0.00 | 0.00 | 87 | 1022.6 |
| 20260506131023 | 13 | 327 | 0.0 | 0.0 | 0.00 | 0.00 | 0.00 | 88 | 1022.6 |
| 20260506130520 | 13 | 327 | 1.6 | 3.2 | 0.00 | 0.00 | 0.00 | 88 | 1022.6 |
| 20260506130017 | 13 | 327 | 0.0 | 3.2 | 0.00 | 0.00 | 0.00 | 88 | 1022.6 |
| 20260506125515 | 13 | 327 | 1.6 | 4.8 | 0.00 | 0.00 | 0.00 | 88 | 1022.6 |
| 20260506125013 | 13 | 327 | 0.0 | 3.2 | 0.00 | 0.00 | 0.00 | 88 | 1022.6 |
| 20260506124511 | 13 | 327 | 3.2 | 6.4 | 0.00 | 0.00 | 0.00 | 88 | 1022.6 |
| 20260506124008 | 13 | 327 | 1.6 | 3.2 | 0.00 | 0.00 | 0.00 | 88 | 1022.6 |
| 20260506123506 | 13 | 327 | 1.6 | 4.8 | 0.00 | 0.00 | 0.00 | 87 | 1022.6 |
| 20260506123004 | 13 | 327 | 3.2 | 3.2 | 0.00 | 0.00 | 0.00 | 87 | 1022.6 |
| 20260506122500 | 12 | 327 | 1.6 | 3.2 | 0.00 | 0.00 | 0.00 | 88 | 1022.6 |
| 20260506121959 | 12 | 327 | 3.2 | 3.2 | 0.00 | 0.00 | 0.00 | 88 | 1022.6 |
| 20260506121455 | 12 | 327 | 0.0 | 1.6 | 0.00 | 0.00 | 0.00 | 88 | 1022.6 |
| 20260506120952 | 12 | 327 | 1.6 | 4.8 | 0.00 | 0.00 | 0.00 | 88 | 1022.6 |
| 20260506120449 | 12 | 327 | 3.2 | 3.2 | 0.00 | 0.00 | 0.00 | 88 | 1022.6 |
| 20260506115947 | 12 | 327 | 3.2 | 3.2 | 0.00 | 0.00 | 0.00 | 88 | 1022.6 |
| 20260506115445 | 12 | 327 | 3.2 | 4.8 | 0.00 | 0.00 | 0.00 | 88 | 1022.6 |
| 20260506114943 | 12 | 327 | 1.6 | 4.8 | 0.00 | 0.00 | 0.00 | 88 | 1022.6 |
| 20260506114440 | 12 | 327 | 1.6 | 3.2 | 0.00 | 0.00 | 0.00 | 89 | 1022.6 |
| 20260506113938 | 12 | 327 | 1.6 | 3.2 | 0.00 | 0.00 | 0.00 | 89 | 1022.6 |
| 20260506113436 | 12 | 327 | 0.0 | 0.0 | 0.00 | 0.00 | 0.00 | 89 | 1022.6 |
| 20260506112932 | 12 | 327 | 0.0 | 3.2 | 0.00 | 0.00 | 0.00 | 89 | 1022.2 |
| 20260506112430 | 12 | 327 | 0.0 | 0.0 | 0.00 | 0.00 | 0.00 | 89 | 1022.2 |
| 20260506111927 | 12 | 327 | 0.0 | 0.0 | 0.00 | 0.00 | 0.00 | 89 | 1022.2 |
| 20260506111425 | 12 | 327 | 0.0 | 0.0 | 0.00 | 0.00 | 0.00 | 89 | 1022.2 |
| 20260506110922 | 12 | 327 | 0.0 | 0.0 | 0.00 | 0.00 | 0.00 | 89 | 1022.2 |
| 20260506110420 | 12 | 327 | 0.0 | 0.0 | 0.00 | 0.00 | 0.00 | 89 | 1022.2 |
| 20260506105916 | 12 | 327 | 0.0 | 0.0 | 0.00 | 0.00 | 0.00 | 89 | 1022.2 |
| 20260506105412 | 11 | 327 | 0.0 | 0.0 | 0.00 | 0.00 | 0.00 | 89 | 1022.2 |
| 20260506104910 | 11 | 327 | 0.0 | 0.0 | 0.00 | 0.00 | 0.00 | 89 | 1021.9 |
| 20260506104408 | 11 | 327 | 1.6 | 3.2 | 0.00 | 0.00 | 0.00 | 89 | 1021.9 |
| 20260506103905 | 11 | 327 | 0.0 | 1.6 | 0.00 | 0.00 | 0.00 | 89 | 1021.9 |
| 20260506103402 | 11 | 327 | 1.6 | 4.8 | 0.00 | 0.00 | 0.00 | 89 | 1021.9 |
| 20260506102859 | 11 | 327 | 1.6 | 3.2 | 0.00 | 0.00 | 0.00 | 89 | 1021.9 |
| 20260506102358 | 11 | 327 | 1.6 | 3.2 | 0.00 | 0.00 | 0.00 | 89 | 1021.9 |
| 20260506101854 | 11 | 327 | 0.0 | 0.0 | 0.00 | 0.00 | 0.00 | 89 | 1021.9 |
| 20260506101350 | 11 | 327 | 0.0 | 0.0 | 0.00 | 0.00 | 0.00 | 89 | 1021.9 |
| 20260506100848 | 11 | 327 | 0.0 | 0.0 | 0.00 | 0.00 | 0.00 | 89 | 1021.5 |
| 20260506100346 | 11 | 327 | 1.6 | 3.2 | 0.00 | 0.00 | 0.00 | 89 | 1021.5 |
| 20260506095844 | 11 | 327 | 3.2 | 6.4 | 0.00 | 0.00 | 0.00 | 89 | 1021.5 |
| 20260506095342 | 11 | 327 | 3.2 | 4.8 | 0.00 | 0.00 | 0.00 | 89 | 1021.5 |
| 20260506094838 | 11 | 327 | 3.2 | 4.8 | 0.00 | 0.00 | 0.00 | 89 | 1021.5 |
| 20260506094337 | 11 | 327 | 0.0 | 1.6 | 0.00 | 0.00 | 0.00 | 88 | 1021.5 |
| 20260506093835 | 11 | 327 | 0.0 | 0.0 | 0.00 | 0.00 | 0.00 | 88 | 1021.2 |
| 20260506093332 | 11 | 327 | 0.0 | 0.0 | 0.00 | 0.00 | 0.00 | 88 | 1021.2 |
| 20260506092829 | 11 | 327 | 0.0 | 0.0 | 0.00 | 0.00 | 0.00 | 88 | 1021.2 |
| 20260506092327 | 11 | 327 | 0.0 | 0.0 | 0.00 | 0.00 | 0.00 | 87 | 1021.5 |
| 20260506091824 | 11 | 327 | 0.0 | 0.0 | 0.00 | 0.00 | 0.00 | 87 | 1021.5 |
| 20260506091322 | 11 | 327 | 0.0 | 0.0 | 0.00 | 0.00 | 0.00 | 87 | 1021.5 |
| 20260506090819 | 11 | 327 | 0.0 | 0.0 | 0.00 | 0.00 | 0.00 | 87 | 1021.5 |
| 20260506090316 | 12 | 327 | 0.0 | 0.0 | 0.00 | 0.00 | 0.00 | 87 | 1021.5 |
| 20260506085813 | 12 | 327 | 0.0 | 0.0 | 0.00 | 0.00 | 0.00 | 87 | 1021.5 |
| 20260506085309 | 12 | 327 | 0.0 | 0.0 | 0.00 | 0.00 | 0.00 | 86 | 1021.5 |
| 20260506084806 | 12 | 327 | 0.0 | 0.0 | 0.00 | 0.00 | 0.00 | 86 | 1021.5 |
| 20260506084302 | 12 | 327 | 0.0 | 0.0 | 0.00 | 0.00 | 0.00 | 86 | 1021.5 |
| 20260506083759 | 12 | 327 | 0.0 | 0.0 | 0.00 | 0.00 | 0.00 | 86 | 1021.9 |
| 20260506083257 | 12 | 327 | 0.0 | 0.0 | 0.00 | 0.00 | 0.00 | 86 | 1021.9 |
| 20260506082754 | 12 | 327 | 0.0 | 0.0 | 0.00 | 0.00 | 0.00 | 85 | 1021.9 |
| 20260506082249 | 12 | 327 | 0.0 | 0.0 | 0.00 | 0.00 | 0.00 | 85 | 1021.9 |
| 20260506081747 | 12 | 327 | 0.0 | 0.0 | 0.00 | 0.00 | 0.00 | 85 | 1021.9 |
| 20260506081244 | 12 | 327 | 0.0 | 0.0 | 0.00 | 0.00 | 0.00 | 85 | 1021.9 |
| 20260506080743 | 12 | 327 | 0.0 | 0.0 | 0.00 | 0.00 | 0.00 | 85 | 1021.9 |
| 20260506080238 | 12 | 327 | 0.0 | 0.0 | 0.00 | 0.00 | 0.00 | 84 | 1021.9 |
| 20260506073223 | 13 | 327 | 1.6 | 3.2 | 0.00 | 0.00 | 0.00 | 83 | 1021.5 |
| 20260506072719 | 13 | 327 | 0.0 | 3.2 | 0.00 | 0.00 | 0.00 | 82 | 1021.5 |
| 20260506072217 | 13 | 327 | 0.0 | 4.8 | 0.00 | 0.00 | 0.00 | 82 | 1021.5 |
| 20260506071714 | 13 | 327 | 0.0 | 0.0 | 0.00 | 0.00 | 0.00 | 82 | 1021.5 |
| 20260506071212 | 13 | 327 | 0.0 | 3.2 | 0.00 | 0.00 | 0.00 | 82 | 1021.5 |
| 20260506070709 | 13 | 327 | 0.0 | 3.2 | 0.00 | 0.00 | 0.00 | 82 | 1021.2 |
| 20260506070206 | 13 | 327 | 1.6 | 3.2 | 0.00 | 0.00 | 0.00 | 82 | 1021.2 |
| 20260506062143 | 13 | 327 | 1.6 | 4.8 | 0.00 | 0.03 | 0.03 | 82 | 1020.9 |
| 20260506061639 | 13 | 327 | 0.0 | 0.0 | 0.00 | 0.03 | 0.03 | 82 | 1020.9 |
| 20260506061137 | 13 | 327 | 0.0 | 0.0 | 0.00 | 0.03 | 0.03 | 82 | 1020.5 |
| 20260506060635 | 13 | 327 | 0.0 | 0.0 | 0.00 | 0.03 | 0.03 | 81 | 1020.5 |
| 20260506060131 | 13 | 327 | 1.6 | 3.2 | 0.00 | 0.03 | 0.03 | 81 | 1020.5 |
| 20260506051103 | 14 | 327 | 3.2 | 4.8 | 0.00 | 0.03 | 0.03 | 80 | 1019.8 |
| 20260506050602 | 14 | 327 | 1.6 | 4.8 | 0.00 | 0.03 | 0.03 | 80 | 1019.8 |
| 20260506045052 | 14 | 327 | 1.6 | 3.2 | 0.00 | 0.03 | 0.03 | 81 | 1020.2 |
| 20260506044550 | 15 | 327 | 1.6 | 3.2 | 0.00 | 0.03 | 0.03 | 81 | 1019.8 |
| 20260506044046 | 15 | 327 | 0.0 | 3.2 | 0.00 | 0.03 | 0.03 | 81 | 1019.8 |
| 20260506043543 | 15 | 327 | 0.0 | 0.0 | 0.00 | 0.03 | 0.03 | 81 | 1019.8 |
| 20260506043042 | 15 | 327 | 0.0 | 0.0 | 0.00 | 0.03 | 0.03 | 81 | 1019.8 |
| 20260506042541 | 15 | 327 | 0.0 | 1.6 | 0.00 | 0.03 | 0.03 | 81 | 1019.5 |
| 20260506042038 | 15 | 327 | 0.0 | 0.0 | 0.00 | 0.03 | 0.03 | 80 | 1019.5 |
| 20260506041537 | 15 | 327 | 0.0 | 0.0 | 0.00 | 0.03 | 0.03 | 80 | 1019.5 |
| 20260506041033 | 15 | 327 | 0.0 | 0.0 | 0.00 | 0.03 | 0.03 | 80 | 1019.5 |
| 20260506040531 | 15 | 327 | 0.0 | 0.0 | 0.00 | 0.03 | 0.03 | 80 | 1019.5 |
| 20260506040026 | 15 | 327 | 0.0 | 0.0 | 0.00 | 0.03 | 0.03 | 80 | 1019.5 |
| 20260506035524 | 15 | 327 | 0.0 | 0.0 | 0.00 | 0.03 | 0.03 | 79 | 1019.2 |
| 20260506035020 | 15 | 327 | 0.0 | 0.0 | 0.00 | 0.03 | 0.03 | 79 | 1019.2 |
| 20260506034518 | 15 | 327 | 0.0 | 0.0 | 0.00 | 0.03 | 0.03 | 79 | 1019.2 |
| 20260506034015 | 15 | 327 | 0.0 | 3.2 | 0.00 | 0.03 | 0.03 | 78 | 1019.5 |
| 20260506033512 | 15 | 327 | 0.0 | 3.2 | 0.00 | 0.03 | 0.03 | 78 | 1019.2 |
| 20260506033009 | 15 | 327 | 0.0 | 0.0 | 0.00 | 0.03 | 0.03 | 78 | 1019.2 |
| 20260506032506 | 15 | 327 | 0.0 | 0.0 | 0.00 | 0.03 | 0.03 | 78 | 1019.2 |
| 20260506032002 | 15 | 327 | 0.0 | 0.0 | 0.00 | 0.03 | 0.03 | 78 | 1018.8 |
| 20260506031500 | 16 | 327 | 0.0 | 0.0 | 0.00 | 0.03 | 0.03 | 78 | 1018.8 |
| 20260506030957 | 16 | 327 | 0.0 | 0.0 | 0.00 | 0.03 | 0.03 | 78 | 1018.8 |
| 20260506030455 | 16 | 327 | 0.0 | 0.0 | 0.00 | 0.03 | 0.03 | 77 | 1018.8 |
| 20260506025952 | 16 | 327 | 0.0 | 0.0 | 0.00 | 0.03 | 0.03 | 77 | 1018.8 |
| 20260506025449 | 16 | 327 | 0.0 | 0.0 | 0.00 | 0.03 | 0.03 | 76 | 1018.8 |
| 20260506024945 | 16 | 327 | 0.0 | 0.0 | 0.00 | 0.03 | 0.03 | 76 | 1018.8 |
| 20260506024442 | 16 | 327 | 0.0 | 0.0 | 0.00 | 0.03 | 0.03 | 75 | 1018.8 |
| 20260506023938 | 16 | 327 | 0.0 | 0.0 | 0.00 | 0.03 | 0.03 | 75 | 1018.5 |
| 20260506023435 | 16 | 327 | 0.0 | 0.0 | 0.00 | 0.03 | 0.03 | 75 | 1018.5 |
| 20260506022932 | 16 | 327 | 0.0 | 0.0 | 0.00 | 0.03 | 0.03 | 74 | 1018.5 |
| 20260506022429 | 16 | 327 | 0.0 | 0.0 | 0.00 | 0.03 | 0.03 | 74 | 1018.5 |
| 20260506021927 | 16 | 327 | 0.0 | 0.0 | 0.00 | 0.03 | 0.03 | 73 | 1018.5 |
| 20260506021424 | 16 | 327 | 0.0 | 3.2 | 0.00 | 0.03 | 0.03 | 73 | 1018.5 |
| 20260506020921 | 16 | 327 | 0.0 | 0.0 | 0.00 | 0.03 | 0.03 | 73 | 1018.5 |
| 20260506020419 | 16 | 327 | 1.6 | 3.2 | 0.00 | 0.03 | 0.03 | 72 | 1018.5 |
| 20260506015916 | 16 | 327 | 0.0 | 0.0 | 0.00 | 0.03 | 0.03 | 71 | 1018.1 |
| 20260506015414 | 16 | 327 | 1.6 | 4.8 | 0.00 | 0.03 | 0.03 | 71 | 1018.1 |
| 20260506014910 | 17 | 327 | 3.2 | 6.4 | 0.00 | 0.03 | 0.03 | 70 | 1018.1 |
| 20260506014407 | 17 | 321 | 3.2 | 6.4 | 0.00 | 0.03 | 0.03 | 70 | 1018.1 |
| 20260506013904 | 17 | 330 | 4.8 | 6.4 | 0.00 | 0.03 | 0.03 | 70 | 1018.1 |
| 20260506013402 | 17 | 327 | 3.2 | 9.7 | 0.00 | 0.03 | 0.03 | 70 | 1018.1 |
| 20260506012857 | 17 | 294 | 3.2 | 4.8 | 0.00 | 0.03 | 0.03 | 70 | 1018.5 |
| 20260506012354 | 17 | 294 | 0.0 | 3.2 | 0.00 | 0.03 | 0.03 | 70 | 1018.5 |
| 20260506011851 | 17 | 294 | 0.0 | 3.2 | 0.00 | 0.03 | 0.03 | 70 | 1018.5 |
| 20260506011348 | 17 | 294 | 3.2 | 6.4 | 0.00 | 0.03 | 0.03 | 70 | 1018.5 |
| 20260506010846 | 17 | 294 | 1.6 | 3.2 | 0.00 | 0.03 | 0.03 | 70 | 1018.5 |
| 20260506010344 | 17 | 294 | 0.0 | 0.0 | 0.00 | 0.03 | 0.03 | 69 | 1018.5 |
| 20260506005840 | 17 | 294 | 3.2 | 4.8 | 0.00 | 0.03 | 0.03 | 69 | 1018.5 |
| 20260506005337 | 17 | 294 | 1.6 | 4.8 | 0.00 | 0.03 | 0.03 | 70 | 1018.5 |
| 20260506004833 | 17 | 294 | 0.0 | 1.6 | 0.00 | 0.03 | 0.03 | 70 | 1018.5 |
| 20260506004331 | 17 | 294 | 3.2 | 4.8 | 0.00 | 0.03 | 0.03 | 70 | 1018.5 |
| 20260506003827 | 17 | 294 | 1.6 | 3.2 | 0.00 | 0.03 | 0.03 | 70 | 1018.5 |
| 20260506003323 | 17 | 294 | 0.0 | 0.0 | 0.00 | 0.03 | 0.03 | 70 | 1018.5 |
| 20260506002820 | 17 | 294 | 0.0 | 0.0 | 0.00 | 0.03 | 0.03 | 70 | 1018.5 |
| 20260506002316 | 17 | 294 | 3.2 | 4.8 | 0.00 | 0.03 | 0.03 | 70 | 1018.5 |
| 20260506001812 | 17 | 293 | 1.6 | 6.4 | 0.00 | 0.03 | 0.03 | 70 | 1018.1 |
| 20260506001309 | 17 | 293 | 1.6 | 4.8 | 0.00 | 0.03 | 0.03 | 70 | 1018.1 |
| 20260506000806 | 17 | 292 | 0.0 | 4.8 | 0.00 | 0.03 | 0.03 | 71 | 1018.1 |
| 20260506000304 | 17 | 325 | 1.6 | 3.2 | 0.00 | 0.03 | 0.03 | 71 | 1018.1 |
| 20260505235800 | 17 | 325 | 0.0 | 3.2 | 0.00 | 0.03 | 0.03 | 70 | 1018.1 |
| 20260505235258 | 17 | 325 | 0.0 | 1.6 | 0.00 | 0.03 | 0.03 | 70 | 1018.1 |
| 20260505234755 | 17 | 325 | 1.6 | 3.2 | 0.00 | 0.03 | 0.03 | 71 | 1018.1 |
| 20260505234252 | 17 | 325 | 1.6 | 4.8 | 0.00 | 0.03 | 0.03 | 70 | 1018.1 |
| 20260505233749 | 17 | 325 | 3.2 | 6.4 | 0.00 | 0.03 | 0.03 | 70 | 1018.1 |
| 20260505233247 | 17 | 325 | 3.2 | 6.4 | 0.00 | 0.03 | 0.03 | 70 | 1018.1 |
| 20260505232744 | 17 | 325 | 1.6 | 4.8 | 0.00 | 0.03 | 0.03 | 70 | 1018.1 |
| 20260505232241 | 17 | 325 | 3.2 | 4.8 | 0.00 | 0.03 | 0.03 | 70 | 1018.1 |
| 20260505231737 | 17 | 327 | 1.6 | 4.8 | 0.00 | 0.03 | 0.03 | 70 | 1018.1 |
| 20260505231237 | 17 | 324 | 3.2 | 9.7 | 0.00 | 0.03 | 0.03 | 70 | 1018.1 |
| 20260505230735 | 17 | 280 | 1.6 | 4.8 | 0.00 | 0.03 | 0.03 | 71 | 1018.1 |
| 20260505230231 | 17 | 280 | 1.6 | 3.2 | 0.00 | 0.03 | 0.03 | 71 | 1018.1 |
| 20260505225727 | 17 | 327 | 3.2 | 6.4 | 0.00 | 0.03 | 0.03 | 71 | 1018.1 |
| 20260505225225 | 16 | 316 | 4.8 | 9.7 | 0.00 | 0.03 | 0.03 | 71 | 1018.1 |
| 20260505224720 | 17 | 306 | 3.2 | 6.4 | 0.00 | 0.03 | 0.03 | 71 | 1018.1 |
| 20260505224218 | 17 | 327 | 3.2 | 8.0 | 0.00 | 0.03 | 0.03 | 71 | 1018.1 |
| 20260505223715 | 17 | 324 | 4.8 | 8.0 | 0.00 | 0.03 | 0.03 | 71 | 1018.1 |
| 20260505223211 | 16 | 324 | 1.6 | 3.2 | 0.00 | 0.03 | 0.03 | 72 | 1018.5 |
| 20260505222707 | 16 | 340 | 1.6 | 6.4 | 0.00 | 0.03 | 0.03 | 72 | 1018.5 |
| 20260505222203 | 16 | 319 | 0.0 | 0.0 | 0.00 | 0.03 | 0.03 | 73 | 1018.5 |
| 20260505221701 | 16 | 319 | 1.6 | 3.2 | 0.00 | 0.03 | 0.03 | 73 | 1018.5 |
| 20260505221157 | 16 | 315 | 4.8 | 9.7 | 0.00 | 0.03 | 0.03 | 73 | 1018.5 |
| 20260505220654 | 16 | 296 | 3.2 | 9.7 | 0.00 | 0.03 | 0.03 | 73 | 1018.5 |
| 20260505220152 | 16 | 317 | 3.2 | 6.4 | 0.00 | 0.03 | 0.03 | 73 | 1018.5 |
| 20260505215650 | 16 | 343 | 1.6 | 8.0 | 0.00 | 0.03 | 0.03 | 73 | 1018.5 |
| 20260505215148 | 16 | 315 | 3.2 | 8.0 | 0.00 | 0.03 | 0.03 | 73 | 1018.5 |
| 20260505214645 | 16 | 324 | 1.6 | 4.8 | 0.00 | 0.03 | 0.03 | 73 | 1018.5 |
| 20260505214142 | 16 | 286 | 1.6 | 4.8 | 0.00 | 0.03 | 0.03 | 73 | 1018.8 |
| 20260505213640 | 16 | 278 | 1.6 | 4.8 | 0.00 | 0.03 | 0.03 | 73 | 1018.8 |
| 20260505213136 | 16 | 311 | 4.8 | 8.0 | 0.00 | 0.03 | 0.03 | 74 | 1018.5 |
| 20260505212632 | 16 | 325 | 4.8 | 9.7 | 0.00 | 0.03 | 0.03 | 74 | 1018.8 |
| 20260505212130 | 16 | 334 | 1.6 | 6.4 | 0.00 | 0.03 | 0.03 | 74 | 1018.5 |
| 20260505211627 | 16 | 334 | 0.0 | 3.2 | 0.00 | 0.03 | 0.03 | 73 | 1018.5 |
| 20260505211124 | 16 | 310 | 4.8 | 9.7 | 0.00 | 0.03 | 0.03 | 73 | 1018.5 |
| 20260505210621 | 16 | 308 | 4.8 | 11.3 | 0.00 | 0.03 | 0.03 | 73 | 1018.5 |
| 20260505210117 | 16 | 302 | 4.8 | 9.7 | 0.00 | 0.03 | 0.03 | 74 | 1018.5 |
| 20260505205615 | 16 | 307 | 4.8 | 6.4 | 0.00 | 0.03 | 0.03 | 74 | 1018.5 |
| 20260505205113 | 15 | 315 | 1.6 | 4.8 | 0.00 | 0.03 | 0.03 | 75 | 1018.8 |
| 20260505204610 | 15 | 298 | 1.6 | 6.4 | 0.00 | 0.03 | 0.03 | 75 | 1018.8 |
| 20260505204107 | 15 | 305 | 3.2 | 6.4 | 0.00 | 0.03 | 0.03 | 75 | 1018.8 |
| 20260505203603 | 15 | 321 | 0.0 | 1.6 | 0.00 | 0.03 | 0.03 | 75 | 1019.2 |
| 20260505203101 | 15 | 318 | 4.8 | 11.3 | 0.00 | 0.03 | 0.03 | 75 | 1019.2 |
| 20260505202556 | 15 | 308 | 4.8 | 12.9 | 0.00 | 0.03 | 0.03 | 75 | 1018.8 |
| 20260505202053 | 15 | 321 | 1.6 | 6.4 | 0.00 | 0.03 | 0.03 | 75 | 1018.8 |
| 20260505201549 | 15 | 316 | 3.2 | 6.4 | 0.00 | 0.03 | 0.03 | 75 | 1019.2 |
| 20260505201047 | 15 | 327 | 4.8 | 6.4 | 0.00 | 0.03 | 0.03 | 75 | 1019.2 |
| 20260505200545 | 15 | 327 | 3.2 | 6.4 | 0.00 | 0.03 | 0.03 | 76 | 1019.2 |
| 20260505200042 | 15 | 343 | 1.6 | 4.8 | 0.00 | 0.03 | 0.03 | 76 | 1019.2 |
| 20260505195538 | 15 | 338 | 3.2 | 6.4 | 0.00 | 0.03 | 0.03 | 76 | 1019.2 |
| 20260505195036 | 15 | 321 | 3.2 | 6.4 | 0.00 | 0.03 | 0.03 | 77 | 1019.2 |
| 20260505194533 | 15 | 327 | 3.2 | 6.4 | 0.00 | 0.03 | 0.03 | 76 | 1019.2 |
| 20260505194027 | 15 | 315 | 6.4 | 11.3 | 0.00 | 0.03 | 0.03 | 75 | 1019.2 |
| 20260505193525 | 15 | 316 | 3.2 | 6.4 | 0.00 | 0.03 | 0.03 | 76 | 1019.2 |
| 20260505193022 | 15 | 316 | 0.0 | 3.2 | 0.00 | 0.03 | 0.03 | 76 | 1019.2 |
| 20260505192521 | 15 | 298 | 4.8 | 9.7 | 0.00 | 0.03 | 0.03 | 75 | 1019.2 |
| 20260505192018 | 15 | 297 | 1.6 | 4.8 | 0.00 | 0.03 | 0.03 | 75 | 1019.2 |
| 20260505191516 | 15 | 327 | 1.6 | 4.8 | 0.00 | 0.03 | 0.03 | 75 | 1019.2 |
| 20260505191014 | 15 | 303 | 3.2 | 6.4 | 0.00 | 0.03 | 0.03 | 75 | 1019.2 |
| 20260505190508 | 15 | 321 | 1.6 | 8.0 | 0.00 | 0.03 | 0.03 | 75 | 1019.2 |
| 20260505190005 | 15 | 338 | 1.6 | 8.0 | 0.00 | 0.03 | 0.03 | 75 | 1019.2 |
| 20260505185502 | 15 | 294 | 3.2 | 6.4 | 0.00 | 0.03 | 0.03 | 76 | 1019.2 |
| 20260505184957 | 15 | 312 | 4.8 | 9.7 | 0.00 | 0.03 | 0.03 | 76 | 1019.2 |
| 20260505184455 | 15 | 338 | 3.2 | 6.4 | 0.00 | 0.03 | 0.03 | 76 | 1018.8 |
| 20260505183951 | 15 | 321 | 3.2 | 6.4 | 0.00 | 0.03 | 0.03 | 75 | 1018.8 |
| 20260505183448 | 15 | 323 | 4.8 | 9.7 | 0.00 | 0.03 | 0.03 | 75 | 1018.8 |
| 20260505182945 | 15 | 324 | 1.6 | 3.2 | 0.00 | 0.03 | 0.03 | 75 | 1018.8 |